sensor_id;sensor_type;location;lat;lon;timestamp;P1;durP1;ratioP1;P2;durP2;ratioP2
69246;SDS011;56358;56.328;43.992;2023-04-01T00:01:58;9.05;;;4.53;;
69246;SDS011;56358;56.328;43.992;2023-04-01T00:03:59;8.10;;;3.92;;
69246;SDS011;56358;56.328;43.992;2023-04-01T00:06:02;7.22;;;3.88;;
69246;SDS011;56358;56.328;43.992;2023-04-01T00:08:02;9.07;;;5.05;;
69246;SDS011;56358;56.328;43.992;2023-04-01T00:10:04;8.20;;;4.15;;
69246;SDS011;56358;56.328;43.992;2023-04-01T00:12:08;7.35;;;3.92;;
69246;SDS011;56358;56.328;43.992;2023-04-01T00:14:09;8.35;;;4.32;;
69246;SDS011;56358;56.328;43.992;2023-04-01T00:16:10;9.60;;;4.68;;
69246;SDS011;56358;56.328;43.992;2023-04-01T00:18:12;9.77;;;4.43;;
69246;SDS011;56358;56.328;43.992;2023-04-01T00:20:13;9.30;;;4.50;;
69246;SDS011;56358;56.328;43.992;2023-04-01T00:22:14;9.82;;;4.55;;
69246;SDS011;56358;56.328;43.992;2023-04-01T00:24:15;7.80;;;4.38;;
69246;SDS011;56358;56.328;43.992;2023-04-01T00:26:16;9.18;;;4.47;;
69246;SDS011;56358;56.328;43.992;2023-04-01T00:28:19;8.80;;;4.70;;
69246;SDS011;56358;56.328;43.992;2023-04-01T00:30:20;7.97;;;4.68;;
69246;SDS011;56358;56.328;43.992;2023-04-01T00:32:21;8.43;;;4.15;;
69246;SDS011;56358;56.328;43.992;2023-04-01T00:34:21;11.63;;;5.00;;
69246;SDS011;56358;56.328;43.992;2023-04-01T00:36:22;8.95;;;4.15;;
69246;SDS011;56358;56.328;43.992;2023-04-01T00:38:23;10.98;;;4.55;;
69246;SDS011;56358;56.328;43.992;2023-04-01T00:40:34;7.55;;;4.22;;
69246;SDS011;56358;56.328;43.992;2023-04-01T00:42:36;10.93;;;4.68;;
69246;SDS011;56358;56.328;43.992;2023-04-01T00:44:37;10.38;;;4.90;;
69246;SDS011;56358;56.328;43.992;2023-04-01T00:46:38;9.82;;;5.13;;
69246;SDS011;56358;56.328;43.992;2023-04-01T00:48:41;9.75;;;4.80;;
69246;SDS011;56358;56.328;43.992;2023-04-01T00:50:45;10.95;;;5.28;;
69246;SDS011;56358;56.328;43.992;2023-04-01T00:52:50;9.73;;;5.45;;
69246;SDS011;56358;56.328;43.992;2023-04-01T00:54:54;10.80;;;5.25;;
69246;SDS011;56358;56.328;43.992;2023-04-01T00:57:03;11.40;;;5.50;;
69246;SDS011;56358;56.328;43.992;2023-04-01T00:59:13;12.05;;;5.53;;
69246;SDS011;56358;56.328;43.992;2023-04-01T01:01:16;9.65;;;4.78;;
69246;SDS011;56358;56.328;43.992;2023-04-01T01:03:17;17.05;;;5.22;;
69246;SDS011;56358;56.328;43.992;2023-04-01T01:05:18;11.98;;;5.68;;
69246;SDS011;56358;56.328;43.992;2023-04-01T01:09:45;12.38;;;5.32;;
69246;SDS011;56358;56.328;43.992;2023-04-01T01:14:33;12.00;;;6.18;;
69246;SDS011;56358;56.328;43.992;2023-04-01T01:18:58;13.10;;;5.97;;
69246;SDS011;56358;56.328;43.992;2023-04-01T01:37:05;12.45;;;5.53;;
69246;SDS011;56358;56.328;43.992;2023-04-01T01:39:13;12.32;;;5.50;;
69246;SDS011;56358;56.328;43.992;2023-04-01T01:41:15;15.10;;;6.15;;
69246;SDS011;56358;56.328;43.992;2023-04-01T01:43:18;11.65;;;5.90;;
69246;SDS011;56358;56.328;43.992;2023-04-01T01:45:23;13.93;;;6.28;;
69246;SDS011;56358;56.328;43.992;2023-04-01T01:47:26;13.40;;;6.38;;
69246;SDS011;56358;56.328;43.992;2023-04-01T01:49:28;14.88;;;7.40;;
69246;SDS011;56358;56.328;43.992;2023-04-01T01:51:32;12.00;;;6.32;;
69246;SDS011;56358;56.328;43.992;2023-04-01T01:53:34;14.75;;;6.10;;
69246;SDS011;56358;56.328;43.992;2023-04-01T01:55:43;14.45;;;6.43;;
69246;SDS011;56358;56.328;43.992;2023-04-01T01:57:45;12.00;;;5.88;;
69246;SDS011;56358;56.328;43.992;2023-04-01T01:59:46;10.95;;;5.75;;
69246;SDS011;56358;56.328;43.992;2023-04-01T02:01:49;12.13;;;6.18;;
69246;SDS011;56358;56.328;43.992;2023-04-01T02:03:52;13.70;;;6.18;;
69246;SDS011;56358;56.328;43.992;2023-04-01T02:05:54;10.90;;;5.95;;
69246;SDS011;56358;56.328;43.992;2023-04-01T02:08:02;14.88;;;7.03;;
69246;SDS011;56358;56.328;43.992;2023-04-01T02:10:07;13.13;;;6.30;;
69246;SDS011;56358;56.328;43.992;2023-04-01T02:12:09;13.60;;;6.25;;
69246;SDS011;56358;56.328;43.992;2023-04-01T02:14:13;12.63;;;6.00;;
69246;SDS011;56358;56.328;43.992;2023-04-01T02:18:53;11.23;;;6.07;;
69246;SDS011;56358;56.328;43.992;2023-04-01T02:20:57;10.52;;;5.75;;
69246;SDS011;56358;56.328;43.992;2023-04-01T02:22:59;12.82;;;6.22;;
69246;SDS011;56358;56.328;43.992;2023-04-01T02:25:09;13.73;;;6.33;;
69246;SDS011;56358;56.328;43.992;2023-04-01T02:27:13;11.38;;;5.97;;
69246;SDS011;56358;56.328;43.992;2023-04-01T02:29:14;12.25;;;6.07;;
69246;SDS011;56358;56.328;43.992;2023-04-01T02:31:15;13.13;;;6.38;;
69246;SDS011;56358;56.328;43.992;2023-04-01T02:33:17;11.68;;;5.97;;
69246;SDS011;56358;56.328;43.992;2023-04-01T02:35:20;10.90;;;6.32;;
69246;SDS011;56358;56.328;43.992;2023-04-01T02:37:21;13.85;;;6.05;;
69246;SDS011;56358;56.328;43.992;2023-04-01T02:39:22;12.10;;;5.68;;
69246;SDS011;56358;56.328;43.992;2023-04-01T02:41:23;15.07;;;5.72;;
69246;SDS011;56358;56.328;43.992;2023-04-01T02:43:23;11.65;;;5.82;;
69246;SDS011;56358;56.328;43.992;2023-04-01T02:45:24;13.48;;;5.75;;
69246;SDS011;56358;56.328;43.992;2023-04-01T02:47:25;14.35;;;6.13;;
69246;SDS011;56358;56.328;43.992;2023-04-01T02:49:26;13.18;;;5.80;;
69246;SDS011;56358;56.328;43.992;2023-04-01T02:51:26;13.75;;;6.38;;
69246;SDS011;56358;56.328;43.992;2023-04-01T02:53:27;14.13;;;6.25;;
69246;SDS011;56358;56.328;43.992;2023-04-01T02:55:28;12.50;;;6.25;;
69246;SDS011;56358;56.328;43.992;2023-04-01T02:57:28;11.32;;;5.57;;
69246;SDS011;56358;56.328;43.992;2023-04-01T02:59:29;11.77;;;6.05;;
69246;SDS011;56358;56.328;43.992;2023-04-01T03:01:30;12.63;;;5.90;;
69246;SDS011;56358;56.328;43.992;2023-04-01T03:03:30;12.40;;;6.07;;
69246;SDS011;56358;56.328;43.992;2023-04-01T03:05:31;11.82;;;5.95;;
69246;SDS011;56358;56.328;43.992;2023-04-01T03:07:32;12.43;;;5.38;;
69246;SDS011;56358;56.328;43.992;2023-04-01T03:09:33;12.18;;;5.43;;
69246;SDS011;56358;56.328;43.992;2023-04-01T03:11:34;13.90;;;5.95;;
69246;SDS011;56358;56.328;43.992;2023-04-01T03:13:35;13.18;;;6.30;;
69246;SDS011;56358;56.328;43.992;2023-04-01T03:15:36;13.38;;;5.70;;
69246;SDS011;56358;56.328;43.992;2023-04-01T03:17:37;11.85;;;6.15;;
69246;SDS011;56358;56.328;43.992;2023-04-01T03:19:38;12.05;;;5.88;;
69246;SDS011;56358;56.328;43.992;2023-04-01T03:21:39;12.18;;;5.53;;
69246;SDS011;56358;56.328;43.992;2023-04-01T03:23:40;11.98;;;6.13;;
69246;SDS011;56358;56.328;43.992;2023-04-01T03:25:40;14.07;;;6.10;;
69246;SDS011;56358;56.328;43.992;2023-04-01T03:27:41;12.30;;;5.90;;
69246;SDS011;56358;56.328;43.992;2023-04-01T03:29:41;14.02;;;6.03;;
69246;SDS011;56358;56.328;43.992;2023-04-01T03:31:42;10.98;;;5.50;;
69246;SDS011;56358;56.328;43.992;2023-04-01T03:33:43;14.15;;;6.22;;
69246;SDS011;56358;56.328;43.992;2023-04-01T03:35:44;14.27;;;6.25;;
69246;SDS011;56358;56.328;43.992;2023-04-01T03:37:45;11.80;;;5.93;;
69246;SDS011;56358;56.328;43.992;2023-04-01T03:39:45;12.45;;;6.13;;
69246;SDS011;56358;56.328;43.992;2023-04-01T03:41:46;11.52;;;5.50;;
69246;SDS011;56358;56.328;43.992;2023-04-01T03:43:47;12.07;;;5.93;;
69246;SDS011;56358;56.328;43.992;2023-04-01T03:45:49;14.40;;;6.38;;
69246;SDS011;56358;56.328;43.992;2023-04-01T03:47:51;12.50;;;6.00;;
69246;SDS011;56358;56.328;43.992;2023-04-01T03:49:52;15.10;;;6.35;;
69246;SDS011;56358;56.328;43.992;2023-04-01T03:51:52;12.38;;;5.47;;
69246;SDS011;56358;56.328;43.992;2023-04-01T03:53:53;13.82;;;6.68;;
69246;SDS011;56358;56.328;43.992;2023-04-01T03:55:54;13.18;;;6.00;;
69246;SDS011;56358;56.328;43.992;2023-04-01T03:57:54;13.60;;;6.55;;
69246;SDS011;56358;56.328;43.992;2023-04-01T03:59:55;13.40;;;6.10;;
69246;SDS011;56358;56.328;43.992;2023-04-01T04:01:56;15.13;;;6.45;;
69246;SDS011;56358;56.328;43.992;2023-04-01T04:03:57;14.55;;;6.55;;
69246;SDS011;56358;56.328;43.992;2023-04-01T04:05:58;15.75;;;6.13;;
69246;SDS011;56358;56.328;43.992;2023-04-01T04:07:59;13.13;;;6.32;;
69246;SDS011;56358;56.328;43.992;2023-04-01T04:10:00;15.10;;;6.28;;
69246;SDS011;56358;56.328;43.992;2023-04-01T04:12:00;15.02;;;6.88;;
69246;SDS011;56358;56.328;43.992;2023-04-01T04:14:01;13.05;;;6.18;;
69246;SDS011;56358;56.328;43.992;2023-04-01T04:16:03;13.55;;;5.93;;
69246;SDS011;56358;56.328;43.992;2023-04-01T04:18:03;14.32;;;6.43;;
69246;SDS011;56358;56.328;43.992;2023-04-01T04:20:04;12.45;;;6.22;;
69246;SDS011;56358;56.328;43.992;2023-04-01T04:22:05;14.00;;;6.13;;
69246;SDS011;56358;56.328;43.992;2023-04-01T04:24:06;15.85;;;6.03;;
69246;SDS011;56358;56.328;43.992;2023-04-01T04:26:09;12.77;;;6.47;;
69246;SDS011;56358;56.328;43.992;2023-04-01T04:28:12;13.15;;;6.25;;
69246;SDS011;56358;56.328;43.992;2023-04-01T04:30:13;13.38;;;6.05;;
69246;SDS011;56358;56.328;43.992;2023-04-01T04:32:13;12.25;;;5.82;;
69246;SDS011;56358;56.328;43.992;2023-04-01T04:34:14;11.73;;;5.40;;
69246;SDS011;56358;56.328;43.992;2023-04-01T04:36:15;11.18;;;5.88;;
69246;SDS011;56358;56.328;43.992;2023-04-01T04:38:15;16.05;;;6.38;;
69246;SDS011;56358;56.328;43.992;2023-04-01T04:40:16;14.65;;;6.13;;
69246;SDS011;56358;56.328;43.992;2023-04-01T04:42:17;15.80;;;7.28;;
69246;SDS011;56358;56.328;43.992;2023-04-01T04:44:18;11.88;;;5.68;;
69246;SDS011;56358;56.328;43.992;2023-04-01T04:46:18;13.63;;;6.00;;
69246;SDS011;56358;56.328;43.992;2023-04-01T04:48:20;13.02;;;6.05;;
69246;SDS011;56358;56.328;43.992;2023-04-01T04:50:20;12.45;;;6.07;;
69246;SDS011;56358;56.328;43.992;2023-04-01T04:52:22;14.02;;;5.97;;
69246;SDS011;56358;56.328;43.992;2023-04-01T04:54:22;13.73;;;5.82;;
69246;SDS011;56358;56.328;43.992;2023-04-01T04:56:23;12.63;;;5.97;;
69246;SDS011;56358;56.328;43.992;2023-04-01T04:58:25;12.77;;;5.97;;
69246;SDS011;56358;56.328;43.992;2023-04-01T05:00:26;13.13;;;6.00;;
69246;SDS011;56358;56.328;43.992;2023-04-01T05:02:27;12.15;;;6.10;;
69246;SDS011;56358;56.328;43.992;2023-04-01T05:04:27;10.88;;;5.30;;
69246;SDS011;56358;56.328;43.992;2023-04-01T05:06:28;11.88;;;5.22;;
69246;SDS011;56358;56.328;43.992;2023-04-01T05:08:32;13.00;;;5.75;;
69246;SDS011;56358;56.328;43.992;2023-04-01T05:10:33;13.27;;;5.88;;
69246;SDS011;56358;56.328;43.992;2023-04-01T05:12:33;12.45;;;5.95;;
69246;SDS011;56358;56.328;43.992;2023-04-01T05:14:37;11.38;;;5.78;;
69246;SDS011;56358;56.328;43.992;2023-04-01T05:16:38;11.80;;;6.13;;
69246;SDS011;56358;56.328;43.992;2023-04-01T05:18:38;11.82;;;5.78;;
69246;SDS011;56358;56.328;43.992;2023-04-01T05:20:45;12.00;;;5.70;;
69246;SDS011;56358;56.328;43.992;2023-04-01T05:22:47;13.80;;;5.72;;
69246;SDS011;56358;56.328;43.992;2023-04-01T05:24:48;12.75;;;5.47;;
69246;SDS011;56358;56.328;43.992;2023-04-01T05:26:49;12.48;;;5.00;;
69246;SDS011;56358;56.328;43.992;2023-04-01T05:28:49;11.85;;;5.47;;
69246;SDS011;56358;56.328;43.992;2023-04-01T05:30:50;14.15;;;5.93;;
69246;SDS011;56358;56.328;43.992;2023-04-01T05:32:51;12.50;;;6.18;;
69246;SDS011;56358;56.328;43.992;2023-04-01T05:34:52;11.82;;;5.70;;
69246;SDS011;56358;56.328;43.992;2023-04-01T05:36:53;11.73;;;5.30;;
69246;SDS011;56358;56.328;43.992;2023-04-01T05:38:56;11.55;;;5.35;;
69246;SDS011;56358;56.328;43.992;2023-04-01T05:41:01;10.35;;;4.95;;
69246;SDS011;56358;56.328;43.992;2023-04-01T05:43:02;11.68;;;5.30;;
69246;SDS011;56358;56.328;43.992;2023-04-01T05:45:03;10.27;;;5.63;;
69246;SDS011;56358;56.328;43.992;2023-04-01T05:47:04;9.48;;;5.03;;
69246;SDS011;56358;56.328;43.992;2023-04-01T05:49:05;12.15;;;5.25;;
69246;SDS011;56358;56.328;43.992;2023-04-01T05:51:05;11.52;;;5.45;;
69246;SDS011;56358;56.328;43.992;2023-04-01T05:53:06;9.93;;;5.07;;
69246;SDS011;56358;56.328;43.992;2023-04-01T05:55:07;11.20;;;4.68;;
69246;SDS011;56358;56.328;43.992;2023-04-01T05:57:08;9.98;;;5.00;;
69246;SDS011;56358;56.328;43.992;2023-04-01T05:59:09;10.13;;;4.82;;
69246;SDS011;56358;56.328;43.992;2023-04-01T06:01:11;11.02;;;4.97;;
69246;SDS011;56358;56.328;43.992;2023-04-01T06:03:12;9.93;;;5.03;;
69246;SDS011;56358;56.328;43.992;2023-04-01T06:05:14;10.40;;;5.40;;
69246;SDS011;56358;56.328;43.992;2023-04-01T06:07:20;10.50;;;5.30;;
69246;SDS011;56358;56.328;43.992;2023-04-01T06:09:26;11.30;;;5.13;;
69246;SDS011;56358;56.328;43.992;2023-04-01T06:16:22;10.60;;;5.00;;
69246;SDS011;56358;56.328;43.992;2023-04-01T06:18:45;9.65;;;4.40;;
69246;SDS011;56358;56.328;43.992;2023-04-01T06:27:36;10.07;;;4.05;;
69246;SDS011;56358;56.328;43.992;2023-04-01T06:34:40;8.32;;;4.72;;
69246;SDS011;56358;56.328;43.992;2023-04-01T06:41:43;7.78;;;4.05;;
69246;SDS011;56358;56.328;43.992;2023-04-01T06:57:41;8.23;;;4.13;;
69246;SDS011;56358;56.328;43.992;2023-04-01T06:59:44;8.48;;;3.60;;
69246;SDS011;56358;56.328;43.992;2023-04-01T07:04:19;8.18;;;4.05;;
69246;SDS011;56358;56.328;43.992;2023-04-01T07:06:25;9.20;;;4.13;;
69246;SDS011;56358;56.328;43.992;2023-04-01T07:08:36;7.20;;;3.92;;
69246;SDS011;56358;56.328;43.992;2023-04-01T07:10:50;8.90;;;4.22;;
69246;SDS011;56358;56.328;43.992;2023-04-01T07:12:57;9.57;;;4.35;;
69246;SDS011;56358;56.328;43.992;2023-04-01T07:15:22;9.73;;;3.85;;
69246;SDS011;56358;56.328;43.992;2023-04-01T07:17:25;6.85;;;3.58;;
69246;SDS011;56358;56.328;43.992;2023-04-01T07:26:36;5.90;;;2.70;;
69246;SDS011;56358;56.328;43.992;2023-04-01T07:28:36;5.60;;;2.72;;
69246;SDS011;56358;56.328;43.992;2023-04-01T07:30:58;7.72;;;3.10;;
69246;SDS011;56358;56.328;43.992;2023-04-01T07:35:35;6.78;;;2.63;;
69246;SDS011;56358;56.328;43.992;2023-04-01T07:40:21;5.97;;;2.30;;
69246;SDS011;56358;56.328;43.992;2023-04-01T07:45:36;4.45;;;2.10;;
69246;SDS011;56358;56.328;43.992;2023-04-01T08:08:18;5.22;;;2.25;;
69246;SDS011;56358;56.328;43.992;2023-04-01T08:10:50;4.55;;;2.13;;
69246;SDS011;56358;56.328;43.992;2023-04-01T08:13:05;5.03;;;1.92;;
69246;SDS011;56358;56.328;43.992;2023-04-01T08:15:31;5.30;;;2.30;;
69246;SDS011;56358;56.328;43.992;2023-04-01T08:22:12;3.00;;;1.60;;
69246;SDS011;56358;56.328;43.992;2023-04-01T08:24:33;5.13;;;2.70;;
69246;SDS011;56358;56.328;43.992;2023-04-01T08:26:42;7.80;;;3.60;;
69246;SDS011;56358;56.328;43.992;2023-04-01T08:28:52;4.57;;;2.28;;
69246;SDS011;56358;56.328;43.992;2023-04-01T08:31:09;2.83;;;1.50;;
69246;SDS011;56358;56.328;43.992;2023-04-01T08:33:26;3.03;;;1.73;;
69246;SDS011;56358;56.328;43.992;2023-04-01T08:35:33;3.78;;;1.70;;
69246;SDS011;56358;56.328;43.992;2023-04-01T08:37:40;4.43;;;1.88;;
69246;SDS011;56358;56.328;43.992;2023-04-01T08:39:46;2.75;;;1.60;;
69246;SDS011;56358;56.328;43.992;2023-04-01T08:42:12;3.05;;;1.73;;
69246;SDS011;56358;56.328;43.992;2023-04-01T08:56:09;3.88;;;1.40;;
69246;SDS011;56358;56.328;43.992;2023-04-01T09:00:49;3.65;;;1.38;;
69246;SDS011;56358;56.328;43.992;2023-04-01T09:03:03;3.45;;;1.67;;
69246;SDS011;56358;56.328;43.992;2023-04-01T09:06:10;2.97;;;1.50;;
69246;SDS011;56358;56.328;43.992;2023-04-01T09:14:49;3.08;;;1.50;;
69246;SDS011;56358;56.328;43.992;2023-04-01T09:24:40;3.88;;;1.88;;
69246;SDS011;56358;56.328;43.992;2023-04-01T09:29:30;3.65;;;1.98;;
69246;SDS011;56358;56.328;43.992;2023-04-01T09:36:35;3.20;;;1.80;;
69246;SDS011;56358;56.328;43.992;2023-04-01T09:38:57;5.45;;;2.17;;
69246;SDS011;56358;56.328;43.992;2023-04-01T09:46:36;4.45;;;2.20;;
69246;SDS011;56358;56.328;43.992;2023-04-01T09:48:20;3.72;;;2.30;;
69246;SDS011;56358;56.328;43.992;2023-04-01T09:50:35;4.55;;;2.35;;
69246;SDS011;56358;56.328;43.992;2023-04-01T09:52:55;5.60;;;2.10;;
69246;SDS011;56358;56.328;43.992;2023-04-01T10:00:36;4.70;;;2.35;;
69246;SDS011;56358;56.328;43.992;2023-04-01T10:37:44;6.93;;;2.33;;
69246;SDS011;56358;56.328;43.992;2023-04-01T10:49:25;4.15;;;2.30;;
69246;SDS011;56358;56.328;43.992;2023-04-01T10:56:42;3.25;;;1.60;;
69246;SDS011;56358;56.328;43.992;2023-04-01T11:13:42;6.30;;;2.00;;
69246;SDS011;56358;56.328;43.992;2023-04-01T11:34:02;6.60;;;2.83;;
69246;SDS011;56358;56.328;43.992;2023-04-01T11:39:05;5.57;;;2.72;;
69246;SDS011;56358;56.328;43.992;2023-04-01T11:41:32;6.25;;;2.65;;
69246;SDS011;56358;56.328;43.992;2023-04-01T11:46:33;4.57;;;2.20;;
69246;SDS011;56358;56.328;43.992;2023-04-01T11:53:23;4.72;;;1.95;;
69246;SDS011;56358;56.328;43.992;2023-04-01T11:56:02;3.78;;;1.90;;
69246;SDS011;56358;56.328;43.992;2023-04-01T11:58:15;5.63;;;2.60;;
69246;SDS011;56358;56.328;43.992;2023-04-01T12:09:52;4.82;;;2.25;;
69246;SDS011;56358;56.328;43.992;2023-04-01T12:20:54;6.90;;;3.20;;
69246;SDS011;56358;56.328;43.992;2023-04-01T12:27:42;7.50;;;1.85;;
69246;SDS011;56358;56.328;43.992;2023-04-01T12:37:14;4.97;;;2.38;;
69246;SDS011;56358;56.328;43.992;2023-04-01T12:41:24;7.00;;;2.45;;
69246;SDS011;56358;56.328;43.992;2023-04-01T12:45:54;5.13;;;2.28;;
69246;SDS011;56358;56.328;43.992;2023-04-01T12:53:05;5.32;;;2.65;;
69246;SDS011;56358;56.328;43.992;2023-04-01T12:57:55;5.35;;;2.53;;
69246;SDS011;56358;56.328;43.992;2023-04-01T13:04:48;6.35;;;2.63;;
69246;SDS011;56358;56.328;43.992;2023-04-01T13:07:19;4.88;;;2.40;;
69246;SDS011;56358;56.328;43.992;2023-04-01T13:22:04;5.47;;;2.25;;
69246;SDS011;56358;56.328;43.992;2023-04-01T13:23:59;12.52;;;4.93;;
69246;SDS011;56358;56.328;43.992;2023-04-01T13:28:24;16.23;;;4.80;;
69246;SDS011;56358;56.328;43.992;2023-04-01T13:30:42;5.32;;;2.83;;
69246;SDS011;56358;56.328;43.992;2023-04-01T13:42:47;5.43;;;1.95;;
69246;SDS011;56358;56.328;43.992;2023-04-01T13:45:14;5.13;;;2.35;;
69246;SDS011;56358;56.328;43.992;2023-04-01T13:51:43;7.72;;;2.03;;
69246;SDS011;56358;56.328;43.992;2023-04-01T14:12:09;6.82;;;2.80;;
69246;SDS011;56358;56.328;43.992;2023-04-01T14:19:08;7.80;;;3.00;;
69246;SDS011;56358;56.328;43.992;2023-04-01T14:38:09;6.25;;;2.60;;
69246;SDS011;56358;56.328;43.992;2023-04-01T14:41:04;5.47;;;2.70;;
69246;SDS011;56358;56.328;43.992;2023-04-01T14:43:20;8.40;;;2.88;;
69246;SDS011;56358;56.328;43.992;2023-04-01T14:45:36;6.25;;;2.47;;
69246;SDS011;56358;56.328;43.992;2023-04-01T14:50:15;8.07;;;2.72;;
69246;SDS011;56358;56.328;43.992;2023-04-01T14:54:36;6.45;;;3.00;;
69246;SDS011;56358;56.328;43.992;2023-04-01T15:03:29;8.32;;;3.45;;
69246;SDS011;56358;56.328;43.992;2023-04-01T15:12:38;13.32;;;2.95;;
69246;SDS011;56358;56.328;43.992;2023-04-01T15:17:34;5.32;;;2.85;;
69246;SDS011;56358;56.328;43.992;2023-04-01T15:19:50;8.30;;;2.58;;
69246;SDS011;56358;56.328;43.992;2023-04-01T15:24:23;5.43;;;2.60;;
69246;SDS011;56358;56.328;43.992;2023-04-01T15:33:31;5.68;;;2.53;;
69246;SDS011;56358;56.328;43.992;2023-04-01T15:35:57;6.65;;;3.13;;
69246;SDS011;56358;56.328;43.992;2023-04-01T15:38:41;5.60;;;2.55;;
69246;SDS011;56358;56.328;43.992;2023-04-01T15:40:45;6.45;;;2.83;;
69246;SDS011;56358;56.328;43.992;2023-04-01T15:52:39;10.05;;;3.90;;
69246;SDS011;56358;56.328;43.992;2023-04-01T16:11:53;7.13;;;2.80;;
69246;SDS011;56358;56.328;43.992;2023-04-01T16:14:11;9.00;;;3.38;;
69246;SDS011;56358;56.328;43.992;2023-04-01T16:23:53;7.30;;;3.00;;
69246;SDS011;56358;56.328;43.992;2023-04-01T16:26:03;5.10;;;2.72;;
69246;SDS011;56358;56.328;43.992;2023-04-01T16:30:40;6.53;;;3.40;;
69246;SDS011;56358;56.328;43.992;2023-04-01T16:32:49;14.15;;;5.70;;
69246;SDS011;56358;56.328;43.992;2023-04-01T16:37:14;11.88;;;3.83;;
69246;SDS011;56358;56.328;43.992;2023-04-01T16:42:09;6.68;;;3.60;;
69246;SDS011;56358;56.328;43.992;2023-04-01T16:44:32;8.25;;;3.40;;
69246;SDS011;56358;56.328;43.992;2023-04-01T16:46:51;6.88;;;3.20;;
69246;SDS011;56358;56.328;43.992;2023-04-01T16:49:00;6.20;;;3.58;;
69246;SDS011;56358;56.328;43.992;2023-04-01T16:51:04;7.53;;;3.22;;
69246;SDS011;56358;56.328;43.992;2023-04-01T16:55:36;7.57;;;3.75;;
69246;SDS011;56358;56.328;43.992;2023-04-01T16:57:37;8.63;;;4.30;;
69246;SDS011;56358;56.328;43.992;2023-04-01T17:00:10;8.00;;;3.90;;
69246;SDS011;56358;56.328;43.992;2023-04-01T17:02:26;7.72;;;3.65;;
69246;SDS011;56358;56.328;43.992;2023-04-01T17:04:33;8.43;;;3.80;;
69246;SDS011;56358;56.328;43.992;2023-04-01T17:06:55;9.18;;;3.70;;
69246;SDS011;56358;56.328;43.992;2023-04-01T17:11:17;8.03;;;3.60;;
69246;SDS011;56358;56.328;43.992;2023-04-01T17:20:31;8.93;;;3.95;;
69246;SDS011;56358;56.328;43.992;2023-04-01T17:41:08;12.52;;;4.47;;
69246;SDS011;56358;56.328;43.992;2023-04-01T17:43:19;9.20;;;4.60;;
69246;SDS011;56358;56.328;43.992;2023-04-01T17:45:32;12.50;;;4.78;;
69246;SDS011;56358;56.328;43.992;2023-04-01T17:59:49;12.70;;;5.75;;
69246;SDS011;56358;56.328;43.992;2023-04-01T18:06:59;11.70;;;5.20;;
69246;SDS011;56358;56.328;43.992;2023-04-01T18:09:31;10.75;;;4.70;;
69246;SDS011;56358;56.328;43.992;2023-04-01T18:20:56;12.75;;;4.97;;
69246;SDS011;56358;56.328;43.992;2023-04-01T18:23:00;9.38;;;5.05;;
69246;SDS011;56358;56.328;43.992;2023-04-01T18:25:22;11.82;;;5.50;;
69246;SDS011;56358;56.328;43.992;2023-04-01T18:29:44;14.18;;;5.40;;
69246;SDS011;56358;56.328;43.992;2023-04-01T18:32:00;12.98;;;5.15;;
69246;SDS011;56358;56.328;43.992;2023-04-01T18:39:18;21.65;;;6.30;;
69246;SDS011;56358;56.328;43.992;2023-04-01T18:41:30;9.45;;;5.15;;
69246;SDS011;56358;56.328;43.992;2023-04-01T18:43:39;10.80;;;5.57;;
69246;SDS011;56358;56.328;43.992;2023-04-01T18:48:03;16.13;;;5.82;;
69246;SDS011;56358;56.328;43.992;2023-04-01T18:50:24;12.32;;;5.15;;
69246;SDS011;56358;56.328;43.992;2023-04-01T18:52:46;12.45;;;5.38;;
69246;SDS011;56358;56.328;43.992;2023-04-01T18:55:36;12.30;;;5.63;;
69246;SDS011;56358;56.328;43.992;2023-04-01T18:57:25;10.18;;;5.15;;
69246;SDS011;56358;56.328;43.992;2023-04-01T19:08:52;14.30;;;5.93;;
69246;SDS011;56358;56.328;43.992;2023-04-01T19:11:03;9.32;;;5.10;;
69246;SDS011;56358;56.328;43.992;2023-04-01T19:17:54;12.45;;;5.28;;
69246;SDS011;56358;56.328;43.992;2023-04-01T19:22:32;11.93;;;4.45;;
69246;SDS011;56358;56.328;43.992;2023-04-01T19:24:58;10.25;;;4.30;;
69246;SDS011;56358;56.328;43.992;2023-04-01T19:40:42;10.48;;;5.13;;
69246;SDS011;56358;56.328;43.992;2023-04-01T19:42:55;13.07;;;5.13;;
69246;SDS011;56358;56.328;43.992;2023-04-01T19:47:40;10.88;;;5.20;;
69246;SDS011;56358;56.328;43.992;2023-04-01T19:52:41;10.88;;;5.47;;
69246;SDS011;56358;56.328;43.992;2023-04-01T19:59:18;12.57;;;5.10;;
69246;SDS011;56358;56.328;43.992;2023-04-01T20:01:44;9.35;;;4.90;;
69246;SDS011;56358;56.328;43.992;2023-04-01T20:04:11;13.88;;;5.15;;
69246;SDS011;56358;56.328;43.992;2023-04-01T20:09:06;11.75;;;5.18;;
69246;SDS011;56358;56.328;43.992;2023-04-01T20:12:56;10.10;;;4.88;;
69246;SDS011;56358;56.328;43.992;2023-04-01T20:17:42;11.40;;;5.23;;
69246;SDS011;56358;56.328;43.992;2023-04-01T20:19:45;19.40;;;5.75;;
69246;SDS011;56358;56.328;43.992;2023-04-01T20:21:56;11.25;;;4.90;;
69246;SDS011;56358;56.328;43.992;2023-04-01T20:24:01;16.92;;;5.55;;
69246;SDS011;56358;56.328;43.992;2023-04-01T20:26:09;11.60;;;5.22;;
69246;SDS011;56358;56.328;43.992;2023-04-01T20:28:14;9.52;;;4.95;;
69246;SDS011;56358;56.328;43.992;2023-04-01T20:30:38;11.15;;;5.75;;
69246;SDS011;56358;56.328;43.992;2023-04-01T20:33:44;10.77;;;5.57;;
69246;SDS011;56358;56.328;43.992;2023-04-01T20:40:35;10.85;;;4.78;;
69246;SDS011;56358;56.328;43.992;2023-04-01T20:52:42;13.55;;;5.18;;
69246;SDS011;56358;56.328;43.992;2023-04-01T20:57:15;11.45;;;5.43;;
69246;SDS011;56358;56.328;43.992;2023-04-01T20:59:46;7.90;;;4.97;;
69246;SDS011;56358;56.328;43.992;2023-04-01T21:01:54;11.38;;;5.40;;
69246;SDS011;56358;56.328;43.992;2023-04-01T21:04:22;10.85;;;5.65;;
69246;SDS011;56358;56.328;43.992;2023-04-01T21:16:08;10.15;;;5.20;;
69246;SDS011;56358;56.328;43.992;2023-04-01T21:25:30;9.57;;;4.88;;
69246;SDS011;56358;56.328;43.992;2023-04-01T21:30:19;11.13;;;5.47;;
69246;SDS011;56358;56.328;43.992;2023-04-01T22:02:19;11.93;;;6.43;;
69246;SDS011;56358;56.328;43.992;2023-04-01T22:04:41;12.23;;;6.07;;
69246;SDS011;56358;56.328;43.992;2023-04-01T22:11:55;10.23;;;5.95;;
69246;SDS011;56358;56.328;43.992;2023-04-01T22:13:52;11.10;;;6.30;;
69246;SDS011;56358;56.328;43.992;2023-04-01T22:18:29;10.95;;;5.90;;
69246;SDS011;56358;56.328;43.992;2023-04-01T22:20:46;11.00;;;6.38;;
69246;SDS011;56358;56.328;43.992;2023-04-01T22:25:16;11.73;;;5.97;;
69246;SDS011;56358;56.328;43.992;2023-04-01T22:43:45;12.32;;;5.68;;
69246;SDS011;56358;56.328;43.992;2023-04-01T22:46:03;9.90;;;5.40;;
69246;SDS011;56358;56.328;43.992;2023-04-01T22:50:13;13.57;;;5.78;;
69246;SDS011;56358;56.328;43.992;2023-04-01T22:52:36;9.48;;;5.25;;
69246;SDS011;56358;56.328;43.992;2023-04-01T22:54:46;9.65;;;4.95;;
69246;SDS011;56358;56.328;43.992;2023-04-01T22:56:54;10.50;;;5.20;;
69246;SDS011;56358;56.328;43.992;2023-04-01T22:59:06;10.10;;;5.20;;
69246;SDS011;56358;56.328;43.992;2023-04-01T23:01:20;10.23;;;4.80;;
69246;SDS011;56358;56.328;43.992;2023-04-01T23:03:31;8.95;;;4.93;;
69246;SDS011;56358;56.328;43.992;2023-04-01T23:05:35;11.48;;;5.30;;
69246;SDS011;56358;56.328;43.992;2023-04-01T23:10:11;9.02;;;5.50;;
69246;SDS011;56358;56.328;43.992;2023-04-01T23:12:37;8.98;;;4.85;;
69246;SDS011;56358;56.328;43.992;2023-04-01T23:14:46;9.77;;;4.95;;